TimeCST,TemperatureF,Dew PointF,Humidity,Sea Level PressureIn,VisibilityMPH,Wind Direction,Wind SpeedMPH,Gust SpeedMPH,PrecipitationIn,Events,Conditions,WindDirDegrees,DateUTC
12:53 AM,32.0,21.9,66,30.08,10.0,East,3.5,-,N/A,,Clear,90,2012-12-14 06:53:00
1:53 AM,33.1,23.0,66,30.08,10.0,NE,3.5,-,N/A,,Clear,50,2012-12-14 07:53:00
2:53 AM,37.0,23.0,57,30.06,10.0,SE,3.5,-,N/A,,Clear,130,2012-12-14 08:53:00
3:53 AM,33.1,23.0,66,30.06,10.0,Calm,Calm,-,N/A,,Clear,0,2012-12-14 09:53:00
4:53 AM,35.1,23.0,61,30.06,10.0,East,4.6,-,N/A,,Clear,100,2012-12-14 10:53:00
5:53 AM,35.1,21.9,59,30.06,10.0,SE,3.5,-,N/A,,Clear,130,2012-12-14 11:53:00
6:53 AM,39.9,24.1,53,30.06,10.0,SSE,4.6,-,N/A,,Clear,160,2012-12-14 12:53:00
7:53 AM,41.0,25.0,53,30.05,10.0,SSE,6.9,-,N/A,,Clear,160,2012-12-14 13:53:00
8:53 AM,45.0,26.1,48,30.04,10.0,South,9.2,-,N/A,,Clear,170,2012-12-14 14:53:00
9:53 AM,48.0,26.1,42,30.05,10.0,SSE,11.5,-,N/A,,Clear,160,2012-12-14 15:53:00
10:53 AM,50.0,26.1,39,30.03,10.0,South,11.5,-,N/A,,Clear,180,2012-12-14 16:53:00
11:53 AM,52.0,28.0,40,30.00,10.0,South,8.1,23.0,N/A,,Overcast,180,2012-12-14 17:53:00
12:53 PM,52.0,28.9,41,29.96,10.0,South,11.5,-,N/A,,Overcast,170,2012-12-14 18:53:00
1:53 PM,52.0,30.0,43,29.91,10.0,SSE,8.1,-,N/A,,Overcast,160,2012-12-14 19:53:00
2:53 PM,53.1,30.9,43,29.88,10.0,SE,9.2,-,N/A,,Overcast,140,2012-12-14 20:53:00
3:49 PM,53.6,33.8,47,29.86,10.0,SSE,12.7,-,N/A,,Overcast,160,2012-12-14 21:49:00
3:53 PM,54.0,33.1,45,29.88,10.0,SSE,15.0,19.6,N/A,,Overcast,160,2012-12-14 21:53:00
4:53 PM,53.1,34.0,48,29.85,10.0,SSE,12.7,-,N/A,,Overcast,150,2012-12-14 22:53:00
5:03 PM,53.1,35.1,50,29.83,10.0,SSE,12.7,-,N/A,,Overcast,150,2012-12-14 23:03:00
5:36 PM,52.0,41.0,66,29.82,10.0,SSE,20.7,31.1,N/A,,Overcast,160,2012-12-14 23:36:00
5:53 PM,52.0,41.0,66,29.83,10.0,SSE,17.3,25.3,N/A,,Overcast,160,2012-12-14 23:53:00
6:53 PM,53.1,33.1,47,29.83,10.0,SSE,12.7,-,N/A,,Overcast,150,2012-12-15 00:53:00
7:49 PM,53.6,33.8,47,29.79,10.0,SSE,11.5,-,N/A,,Overcast,150,2012-12-15 01:49:00
7:53 PM,53.1,34.0,48,29.79,10.0,SSE,12.7,-,N/A,,Overcast,150,2012-12-15 01:53:00
8:19 PM,53.1,33.1,47,29.76,10.0,SSE,13.8,-,N/A,,Overcast,150,2012-12-15 02:19:00
8:53 PM,53.1,33.1,47,29.75,10.0,SSE,19.6,25.3,N/A,,Overcast,150,2012-12-15 02:53:00
9:53 PM,48.0,41.0,77,29.73,10.0,SSE,16.1,26.5,0.01,,Overcast,150,2012-12-15 03:53:00
10:53 PM,46.0,42.1,86,29.69,10.0,SE,12.7,-,0.11,Rain,Light Rain,140,2012-12-15 04:53:00
11:09 PM,46.0,42.1,86,29.69,3.0,SSE,18.4,-,0.05,Rain,Rain,150,2012-12-15 05:09:00
11:53 PM,46.0,43.0,89,29.65,10.0,SE,17.3,-,0.09,Rain,Light Rain,140,2012-12-15 05:53:00